Time;durP1;ratioP1;P1;durP2;ratioP2;P2;SDS_P1;SDS_P2;PMS_P1;PMS_P2;Temp;Humidity;BMP_temperature;BMP_pressure;BME280_temperature;BME280_humidity;BME280_pressure;Samples;Min_cycle;Max_cycle;Signal;HPM_P1;HPM_P2
2023/09/06 00:02:29;;;;;;;4.20;3.90;;;16.80;99.90;16.10;101091;;;;592796;239;24041;-85
2023/09/06 00:04:58;;;;;;;3.67;3.43;;;16.70;99.90;16.10;101089;;;;601691;239;24074;-83
2023/09/06 00:07:23;;;;;;;4.33;3.93;;;16.70;99.90;16.10;101076;;;;591542;239;24150;-86
2023/09/06 00:09:51;;;;;;;4.63;3.67;;;16.70;99.90;16.00;101081;;;;591627;239;24053;-78
2023/09/06 00:12:20;;;;;;;3.73;3.43;;;16.60;99.90;16.00;101087;;;;591265;239;24083;-78
2023/09/06 00:14:47;;;;;;;4.37;3.70;;;16.60;99.90;16.00;101090;;;;590944;239;24082;-79
2023/09/06 00:17:15;;;;;;;5.00;4.50;;;16.60;99.90;16.00;101086;;;;585331;239;35110;-81
2023/09/06 00:19:43;;;;;;;4.53;4.13;;;16.60;99.90;15.90;101089;;;;591069;239;24108;-81
2023/09/06 00:22:11;;;;;;;4.00;3.60;;;16.60;99.90;15.90;101086;;;;590998;239;24084;-79
2023/09/06 00:24:39;;;;;;;4.20;3.77;;;16.60;99.90;15.90;101079;;;;591416;239;24031;-78
2023/09/06 00:27:07;;;;;;;3.90;3.40;;;16.60;99.90;15.90;101083;;;;591100;239;24047;-78
2023/09/06 00:29:38;;;;;;;6.53;3.27;;;16.60;99.90;15.90;101085;;;;591128;239;24028;-78
2023/09/06 00:32:04;;;;;;;4.73;3.43;;;16.50;99.90;15.90;101086;;;;590824;239;24101;-78
2023/09/06 00:34:33;;;;;;;5.17;3.67;;;16.50;99.90;15.80;101082;;;;590925;239;24031;-78
2023/09/06 00:37:01;;;;;;;3.60;3.27;;;16.50;99.90;15.80;101082;;;;591485;239;24047;-78
2023/09/06 00:39:30;;;;;;;3.97;3.67;;;16.50;99.90;15.80;101081;;;;590884;239;24032;-78
2023/09/06 00:42:00;;;;;;;4.20;3.60;;;16.50;99.90;15.80;101075;;;;591415;239;24056;-79
2023/09/06 00:44:25;;;;;;;7.70;3.60;;;16.50;99.90;15.80;101077;;;;591147;239;24043;-78
2023/09/06 00:46:57;;;;;;;4.83;3.27;;;16.50;99.90;15.80;101077;;;;591420;239;24059;-77
2023/09/06 00:49:22;;;;;;;4.10;3.70;;;16.40;99.90;15.80;101078;;;;591523;238;24079;-77
2023/09/06 00:51:49;;;;;;;5.17;3.57;;;16.40;99.90;15.80;101081;;;;592661;238;24080;-79
2023/09/06 00:54:17;;;;;;;5.93;3.57;;;16.40;99.90;15.80;101090;;;;592361;238;24089;-77
2023/09/06 00:56:45;;;;;;;7.43;3.87;;;16.40;99.90;15.80;101089;;;;592157;238;24085;-77
2023/09/06 00:59:13;;;;;;;7.80;3.93;;;16.50;99.90;15.80;101089;;;;591924;239;24085;-77
2023/09/06 01:01:41;;;;;;;3.40;3.10;;;16.50;99.90;15.90;101085;;;;600902;239;24103;-77
2023/09/06 01:04:09;;;;;;;5.43;3.70;;;16.50;99.90;15.90;101089;;;;591629;239;24057;-77
2023/09/06 01:06:38;;;;;;;3.30;2.97;;;16.50;99.90;15.90;101081;;;;592060;239;24130;-77
2023/09/06 01:09:10;;;;;;;4.33;3.80;;;16.50;99.90;15.90;101081;;;;600084;239;24042;-77
2023/09/06 01:11:37;;;;;;;4.17;3.70;;;16.50;99.90;15.90;101077;;;;599937;239;24118;-78
2023/09/06 01:14:06;;;;;;;4.13;3.77;;;16.50;99.90;15.90;101080;;;;591034;239;24087;-77
2023/09/06 01:16:31;;;;;;;3.40;3.13;;;16.50;99.90;15.90;101074;;;;588745;239;24039;-78
2023/09/06 01:19:03;;;;;;;7.63;4.07;;;16.60;99.90;15.90;101074;;;;590725;239;24083;-77
2023/09/06 01:21:33;;;;;;;4.10;3.63;;;16.50;99.90;15.90;101072;;;;590714;239;24092;-77
2023/09/06 01:24:05;;;;;;;4.10;3.70;;;16.60;99.90;15.90;101074;;;;599488;239;24038;-77
2023/09/06 01:26:29;;;;;;;3.50;3.27;;;16.50;99.90;15.90;101073;;;;590372;239;24054;-78
2023/09/06 01:28:57;;;;;;;4.27;3.57;;;16.50;99.90;15.90;101077;;;;590897;239;24053;-77
2023/09/06 01:31:27;;;;;;;3.80;3.50;;;16.50;99.90;15.90;101077;;;;590928;239;24028;-77
2023/09/06 01:33:53;;;;;;;3.60;3.30;;;16.60;99.90;15.90;101074;;;;590712;239;26216;-76
2023/09/06 01:36:21;;;;;;;3.13;2.90;;;16.60;99.90;16.00;101078;;;;591074;239;24045;-77
2023/09/06 01:38:51;;;;;;;4.70;3.83;;;16.60;99.90;16.00;101079;;;;590879;239;24047;-77
2023/09/06 01:41:21;;;;;;;9.23;4.00;;;16.60;99.90;16.00;101079;;;;591154;239;24040;-77
2023/09/06 01:43:46;;;;;;;5.90;3.20;;;16.60;99.90;16.00;101076;;;;590918;239;24059;-78
2023/09/06 01:46:14;;;;;;;3.77;3.47;;;16.60;99.90;16.00;101076;;;;591691;239;24040;-79
2023/09/06 01:48:42;;;;;;;4.40;4.00;;;16.60;99.90;16.00;101071;;;;591414;239;24097;-77
2023/09/06 01:51:10;;;;;;;5.53;4.03;;;16.60;99.90;16.00;101084;;;;591432;239;24024;-77
2023/09/06 01:53:38;;;;;;;3.57;3.27;;;16.60;99.90;16.00;101078;;;;591305;239;24027;-77
2023/09/06 01:56:14;;;;;;;4.27;3.87;;;16.60;99.90;15.90;101075;;;;591298;239;24089;-77
2023/09/06 01:58:39;;;;;;;4.33;4.00;;;16.60;99.90;15.90;101074;;;;591132;239;24068;-77
2023/09/06 02:01:09;;;;;;;6.77;3.90;;;16.50;99.90;15.80;101078;;;;592014;238;24031;-78
2023/09/06 02:03:40;;;;;;;3.73;3.43;;;16.40;99.90;15.70;101067;;;;592215;238;24090;-78
2023/09/06 02:06:08;;;;;;;4.43;4.03;;;16.40;99.90;15.70;101073;;;;591958;238;24026;-80
2023/09/06 02:08:40;;;;;;;5.33;4.10;;;16.30;99.90;15.60;101073;;;;591862;238;24100;-77
2023/09/06 02:11:04;;;;;;;4.30;3.87;;;16.30;99.90;15.50;101078;;;;591109;239;24042;-78
2023/09/06 02:13:32;;;;;;;9.00;3.77;;;16.20;99.90;15.50;101076;;;;591926;239;24096;-77
2023/09/06 02:16:03;;;;;;;8.10;4.23;;;16.10;99.90;15.40;101078;;;;591905;239;25122;-76
2023/09/06 02:18:32;;;;;;;10.07;4.63;;;16.00;99.90;15.40;101069;;;;601214;239;24043;-78
2023/09/06 02:21:02;;;;;;;5.27;4.60;;;16.00;99.90;15.40;101068;;;;591755;239;24098;-78
2023/09/06 02:23:28;;;;;;;6.47;4.70;;;16.00;99.90;15.40;101077;;;;591641;239;24066;-79
2023/09/06 02:25:57;;;;;;;5.00;3.73;;;16.00;99.90;15.40;101075;;;;591730;239;24043;-77
2023/09/06 02:28:25;;;;;;;4.20;3.80;;;16.00;99.90;15.30;101078;;;;591765;239;24076;-77
2023/09/06 02:30:53;;;;;;;5.23;3.97;;;16.00;99.90;15.40;101076;;;;591812;239;24077;-79
2023/09/06 02:33:21;;;;;;;5.87;4.33;;;16.00;99.90;15.30;101075;;;;591911;239;24086;-80
2023/09/06 02:35:49;;;;;;;4.67;4.27;;;16.00;99.90;15.30;101075;;;;591540;239;24058;-78
2023/09/06 02:38:18;;;;;;;4.77;4.03;;;15.90;99.90;15.30;101072;;;;591069;239;24073;-77
2023/09/06 02:40:47;;;;;;;6.90;4.37;;;15.90;99.90;15.30;101081;;;;591242;239;24093;-78
2023/09/06 02:43:18;;;;;;;4.63;4.27;;;15.90;99.90;15.30;101081;;;;591414;239;24032;-77
2023/09/06 02:45:49;;;;;;;4.87;4.47;;;15.90;99.90;15.30;101073;;;;591549;239;24030;-77
2023/09/06 02:48:15;;;;;;;6.20;4.57;;;15.90;99.90;15.30;101073;;;;592036;239;24154;-79
2023/09/06 02:50:40;;;;;;;4.70;4.13;;;15.90;99.90;15.20;101072;;;;592276;239;24066;-84
2023/09/06 02:53:23;;;;;;;4.67;4.23;;;15.90;99.90;15.20;101080;;;;592295;239;24081;-77
2023/09/06 02:55:54;;;;;;;8.38;5.65;;;15.80;99.90;15.20;101080;;;;587323;239;35047;-81
2023/09/06 02:58:18;;;;;;;5.13;4.70;;;15.80;99.90;15.10;101076;;;;600455;239;24109;-78
2023/09/06 03:00:55;;;;;;;8.73;4.87;;;15.80;99.90;15.10;101069;;;;591801;239;24065;-81
2023/09/06 03:03:16;;;;;;;6.13;4.87;;;15.80;99.90;15.10;101076;;;;591067;239;24090;-78
2023/09/06 03:05:44;;;;;;;5.43;4.00;;;15.80;99.90;15.10;101075;;;;591425;239;24104;-78
2023/09/06 03:08:12;;;;;;;5.77;4.50;;;15.70;99.90;15.10;101065;;;;591751;239;24059;-78
2023/09/06 03:10:44;;;;;;;4.27;3.97;;;15.70;99.90;15.10;101075;;;;591168;239;24045;-84
2023/09/06 03:13:10;;;;;;;4.17;3.87;;;15.70;99.90;15.10;101069;;;;593089;238;24140;-79
2023/09/06 03:15:43;;;;;;;5.13;4.17;;;15.70;99.90;15.10;101067;;;;582323;243;24112;-78
2023/09/06 03:18:07;;;;;;;4.80;4.30;;;15.70;99.90;15.00;101064;;;;581494;243;24126;-77
2023/09/06 03:20:42;;;;;;;8.23;4.30;;;15.70;99.90;15.00;101080;;;;581489;243;23969;-77
2023/09/06 03:23:17;;;;;;;6.87;4.60;;;15.70;99.90;15.00;101074;;;;591790;239;23993;-77
2023/09/06 03:25:40;;;;;;;5.33;4.40;;;15.60;99.90;15.00;101073;;;;591976;239;23984;-77
2023/09/06 03:28:08;;;;;;;4.30;3.47;;;15.60;99.90;15.00;101073;;;;592124;239;23976;-78
2023/09/06 03:30:34;;;;;;;3.97;3.67;;;15.60;99.90;15.00;101073;;;;592134;239;23967;-79
2023/09/06 03:33:05;;;;;;;3.93;3.57;;;15.70;99.90;15.00;101072;;;;591731;239;23948;-77
2023/09/06 03:35:31;;;;;;;4.77;4.37;;;15.70;99.90;15.00;101068;;;;591383;239;23949;-77
2023/09/06 03:38:08;;;;;;;4.27;3.87;;;15.70;99.90;15.00;101067;;;;591629;239;23965;-78
2023/09/06 03:40:35;;;;;;;5.83;3.90;;;15.70;99.90;15.00;101074;;;;591823;239;23973;-78
2023/09/06 03:43:14;;;;;;;3.93;3.63;;;15.70;99.90;15.10;101069;;;;591942;239;24007;-79
2023/09/06 03:45:39;;;;;;;7.73;4.30;;;15.70;99.90;15.10;101074;;;;591741;239;24102;-77
2023/09/06 03:48:10;;;;;;;4.17;3.87;;;15.70;99.90;15.10;101072;;;;592060;239;24204;-77
2023/09/06 03:50:35;;;;;;;5.27;3.97;;;15.70;99.90;15.10;101068;;;;591477;239;24061;-78
2023/09/06 03:53:04;;;;;;;4.07;3.77;;;15.70;99.90;15.10;101074;;;;591670;239;24051;-79
2023/09/06 03:55:37;;;;;;;4.63;4.23;;;15.70;99.90;15.10;101071;;;;592189;239;24026;-77
2023/09/06 03:58:07;;;;;;;4.67;4.27;;;15.70;99.90;15.10;101075;;;;592423;239;24040;-78
2023/09/06 04:00:31;;;;;;;4.63;4.17;;;15.80;99.90;15.10;101072;;;;591821;239;24121;-77
2023/09/06 04:02:59;;;;;;;4.63;4.17;;;15.80;99.90;15.10;101072;;;;591894;239;24040;-78
2023/09/06 04:05:30;;;;;;;3.90;3.43;;;15.80;99.90;15.20;101069;;;;591704;239;24093;-77
2023/09/06 04:08:02;;;;;;;3.80;3.50;;;15.80;99.90;15.20;101072;;;;581054;243;24106;-79
2023/09/06 04:10:35;;;;;;;3.93;3.60;;;15.90;99.90;15.30;101078;;;;590449;243;24111;-78
2023/09/06 04:12:57;;;;;;;4.13;3.80;;;15.90;99.90;15.30;101074;;;;580590;243;24112;-80
2023/09/06 04:15:23;;;;;;;4.40;4.00;;;15.90;99.90;15.40;101078;;;;580683;243;23985;-79
2023/09/06 04:17:52;;;;;;;8.13;4.03;;;16.00;99.90;15.40;101078;;;;591850;239;23937;-78
2023/09/06 04:20:22;;;;;;;4.47;4.03;;;16.00;99.90;15.40;101080;;;;591737;239;24025;-76
2023/09/06 04:22:52;;;;;;;5.10;4.60;;;16.00;99.90;15.40;101077;;;;591896;239;25033;-78
2023/09/06 04:25:22;;;;;;;3.80;3.50;;;16.10;99.90;15.40;101082;;;;592583;238;23952;-79
2023/09/06 04:27:47;;;;;;;4.20;3.80;;;16.10;99.90;15.50;101082;;;;592735;238;24018;-80
2023/09/06 04:30:18;;;;;;;8.20;3.93;;;16.10;99.90;15.50;101083;;;;592606;238;23935;-80
2023/09/06 04:32:46;;;;;;;7.07;4.37;;;16.10;99.90;15.50;101078;;;;592781;238;23960;-78
2023/09/06 04:35:18;;;;;;;4.63;4.07;;;16.20;99.90;15.60;101071;;;;592419;239;23984;-77
2023/09/06 04:37:46;;;;;;;5.43;3.93;;;16.10;99.90;15.60;101073;;;;591985;239;23950;-78
2023/09/06 04:40:17;;;;;;;7.47;4.30;;;16.20;99.90;15.60;101065;;;;591972;239;23949;-78
2023/09/06 04:42:42;;;;;;;5.37;4.37;;;16.30;99.90;15.70;101079;;;;591260;239;23998;-77
2023/09/06 04:45:11;;;;;;;6.37;4.03;;;16.30;99.90;15.70;101078;;;;592162;239;23927;-78
2023/09/06 04:47:43;;;;;;;4.67;4.10;;;16.40;99.90;15.80;101087;;;;592617;239;23935;-77
2023/09/06 04:50:08;;;;;;;5.53;3.97;;;16.30;99.90;15.80;101082;;;;592554;239;23988;-76
2023/09/06 04:52:44;;;;;;;4.33;3.93;;;16.40;99.90;15.90;101093;;;;592364;239;23972;-77
2023/09/06 04:55:15;;;;;;;4.77;3.90;;;16.50;99.90;16.00;101092;;;;591820;239;23964;-77
2023/09/06 04:57:46;;;;;;;4.33;4.00;;;16.50;99.90;16.00;101093;;;;592188;239;24022;-77
2023/09/06 05:00:15;;;;;;;4.33;3.77;;;16.60;99.90;16.10;101101;;;;592026;238;23964;-77
2023/09/06 05:02:40;;;;;;;5.73;3.90;;;16.70;99.90;16.20;101101;;;;591987;239;24070;-78
2023/09/06 05:05:08;;;;;;;4.17;3.77;;;16.80;99.90;16.60;101099;;;;591534;239;24116;-78
2023/09/06 05:07:36;;;;;;;4.47;3.70;;;18.30;99.90;18.00;101110;;;;600955;239;24031;-79
2023/09/06 05:10:10;;;;;;;3.70;3.40;;;18.30;99.90;19.60;101120;;;;591492;239;24079;-77
2023/09/06 05:12:38;;;;;;;3.77;3.33;;;19.90;99.90;21.30;101123;;;;591028;239;23127;-77
2023/09/06 05:15:06;;;;;;;5.50;3.70;;;21.60;99.90;22.70;101131;;;;591503;239;24032;-78
2023/09/06 05:17:32;;;;;;;4.03;3.37;;;23.10;99.90;24.10;101126;;;;591438;239;24112;-79
2023/09/06 05:19:59;;;;;;;8.97;3.33;;;24.40;99.90;25.10;101123;;;;591358;239;24099;-80
2023/09/06 05:22:27;;;;;;;8.57;3.53;;;25.40;99.90;26.00;101132;;;;595924;239;24038;-77
2023/09/06 05:24:54;;;;;;;3.23;3.03;;;26.40;99.90;26.80;101135;;;;591381;239;23068;-79
2023/09/06 05:27:27;;;;;;;3.63;3.30;;;27.20;99.90;27.70;101132;;;;591490;239;23089;-77
2023/09/06 05:29:52;;;;;;;5.45;3.53;;;28.10;99.90;28.70;101143;;;;591191;239;23174;-77
2023/09/06 05:32:20;;;;;;;5.22;3.42;;;29.00;99.90;29.40;101141;;;;591354;239;24102;-78
2023/09/06 05:34:49;;;;;;;6.50;3.40;;;29.70;99.90;30.10;101140;;;;591432;239;23053;-77
2023/09/06 05:37:15;;;;;;;3.62;3.30;;;30.40;99.90;30.70;101151;;;;592778;238;23048;-78
2023/09/06 05:39:44;;;;;;;7.32;2.92;;;31.50;95.00;31.20;101151;;;;592407;238;23044;-78
2023/09/06 05:42:13;;;;;;;3.20;3.00;;;31.80;92.30;31.50;101147;;;;591693;238;24105;-78
2023/09/06 05:44:41;;;;;;;3.85;3.28;;;32.30;91.30;32.00;101159;;;;591930;239;23109;-79
2023/09/06 05:47:09;;;;;;;5.37;3.35;;;32.20;91.20;32.70;101167;;;;591929;239;24110;-80
2023/09/06 05:49:37;;;;;;;11.75;3.55;;;32.90;88.70;33.10;101175;;;;591898;239;24088;-85
2023/09/06 05:52:09;;;;;;;5.57;3.03;;;33.50;86.00;33.70;101178;;;;591998;239;23069;-82
2023/09/06 05:54:33;;;;;;;3.10;2.90;;;34.00;82.90;34.30;101190;;;;600638;239;23065;-87
2023/09/06 05:57:05;;;;;;;3.53;2.87;;;34.60;80.40;34.90;101198;;;;591648;239;23036;-81
2023/09/06 05:59:29;;;;;;;5.65;3.17;;;35.20;77.80;35.60;101200;;;;591156;239;23100;-83
2023/09/06 06:02:00;;;;;;;7.55;2.90;;;35.80;74.40;36.20;101203;;;;591620;239;24125;-83
2023/09/06 06:04:25;;;;;;;5.05;3.30;;;36.40;71.80;36.60;101208;;;;590861;239;23115;-85
2023/09/06 06:06:53;;;;;;;11.45;3.15;;;36.80;68.50;36.80;101212;;;;591499;239;23079;-81
2023/09/06 06:09:22;;;;;;;3.10;2.90;;;37.00;65.70;37.00;101216;;;;591606;239;24105;-87
2023/09/06 06:11:48;;;;;;;4.37;3.53;;;37.30;64.80;37.50;101218;;;;590946;239;23111;-80
2023/09/06 06:14:23;;;;;;;6.80;3.17;;;37.60;63.40;38.10;101210;;;;600375;239;23109;-78
2023/09/06 06:16:50;;;;;;;14.60;3.53;;;38.20;61.50;38.30;101224;;;;592022;239;23100;-78
2023/09/06 06:19:19;;;;;;;6.10;3.08;;;38.40;60.00;38.70;101230;;;;592269;239;23052;-87
2023/09/06 06:21:46;;;;;;;7.00;3.83;;;38.90;59.10;39.40;101224;;;;591815;239;23051;-81
2023/09/06 06:24:14;;;;;;;8.68;4.05;;;39.50;58.20;40.10;101232;;;;591904;239;23053;-81
2023/09/06 06:26:43;;;;;;;11.02;3.55;;;40.70;55.60;40.50;101230;;;;591937;239;23063;-78
2023/09/06 06:29:10;;;;;;;8.27;2.90;;;40.60;55.40;40.90;101242;;;;592300;239;23104;-78
2023/09/06 06:31:38;;;;;;;7.55;3.53;;;41.10;54.60;41.20;101245;;;;592346;239;23117;-77
2023/09/06 06:34:06;;;;;;;6.25;3.10;;;41.30;53.60;41.50;101246;;;;592317;239;23052;-79
2023/09/06 06:36:34;;;;;;;10.77;3.30;;;41.70;52.90;42.00;101254;;;;592209;239;23039;-80
2023/09/06 06:39:02;;;;;;;4.68;3.03;;;42.00;52.10;42.30;101251;;;;591993;239;23099;-79
2023/09/06 06:41:30;;;;;;;7.35;3.10;;;42.40;51.20;42.60;101258;;;;591901;239;23154;-79
2023/09/06 06:43:58;;;;;;;6.87;3.00;;;42.70;50.80;43.20;101258;;;;591538;239;23100;-79
2023/09/06 06:46:34;;;;;;;4.60;2.70;;;43.30;50.20;43.60;101256;;;;591574;239;23070;-80
2023/09/06 06:49:04;;;;;;;2.95;2.70;;;43.70;49.60;44.10;101256;;;;593320;238;26291;-83
2023/09/06 06:51:35;;;;;;;6.72;2.95;;;44.20;48.80;44.50;101259;;;;602182;238;23092;-79
2023/09/06 06:53:55;;;;;;;6.90;2.90;;;44.60;48.10;44.70;101266;;;;592491;238;23053;-86
2023/09/06 06:56:26;;;;;;;5.57;3.30;;;44.80;47.50;45.00;101263;;;;588132;239;35065;-84
2023/09/06 06:58:51;;;;;;;3.83;2.85;;;45.10;46.90;45.20;101261;;;;592268;239;23077;-85
2023/09/06 07:01:23;;;;;;;4.18;3.17;;;45.30;46.70;45.30;101266;;;;587153;239;34969;-86
2023/09/06 07:03:48;;;;;;;3.33;2.97;;;45.40;46.40;45.30;101272;;;;591379;236;23099;-84
2023/09/06 07:06:19;;;;;;;20.48;3.67;;;45.40;46.30;45.70;101272;;;;591833;239;23037;-84
2023/09/06 07:08:44;;;;;;;8.52;3.40;;;45.70;45.90;45.90;101275;;;;592421;237;25437;-86
2023/09/06 07:11:11;;;;;;;7.93;3.25;;;45.90;45.60;46.40;101281;;;;592299;238;23130;-86
2023/09/06 07:13:39;;;;;;;9.32;2.90;;;46.30;45.30;46.60;101286;;;;593638;237;23102;-83
2023/09/06 07:16:12;;;;;;;3.03;2.70;;;46.50;44.50;46.60;101280;;;;592305;236;23071;-84
2023/09/06 07:18:36;;;;;;;5.95;2.50;;;46.50;44.60;47.00;101279;;;;592405;236;23145;-84
2023/09/06 07:21:08;;;;;;;11.80;3.22;;;46.90;44.10;47.50;101287;;;;595195;236;23089;-84
2023/09/06 07:23:33;;;;;;;3.90;2.85;;;47.50;43.00;47.60;101289;;;;592895;236;23080;-83
2023/09/06 07:26:04;;;;;;;7.93;2.83;;;47.50;42.90;47.70;101288;;;;592633;236;23069;-84
2023/09/06 07:28:40;;;;;;;10.38;3.00;;;47.60;42.70;47.80;101290;;;;592165;236;23065;-85
2023/09/06 07:31:12;;;;;;;3.30;2.65;;;47.90;42.50;47.90;101290;;;;591588;236;23083;-83
2023/09/06 07:33:40;;;;;;;4.37;2.30;;;47.80;42.40;48.40;101296;;;;591335;236;23077;-84
2023/09/06 07:36:06;;;;;;;4.37;2.92;;;48.70;42.40;48.70;101300;;;;593083;236;23059;-82
2023/09/06 07:38:34;;;;;;;3.00;2.70;;;48.60;41.60;48.90;101301;;;;598836;236;23119;-84
2023/09/06 07:41:02;;;;;;;11.77;2.80;;;48.90;41.20;49.20;101308;;;;592415;233;23092;-85
2023/09/06 07:43:29;;;;;;;7.75;2.50;;;49.10;41.30;49.50;101299;;;;596521;236;23039;-84
2023/09/06 07:45:57;;;;;;;13.62;2.70;;;49.40;40.70;49.70;101309;;;;597646;236;23058;-84
2023/09/06 07:48:31;;;;;;;3.17;2.20;;;49.60;40.60;49.90;101306;;;;598111;236;23056;-85
2023/09/06 07:51:03;;;;;;;3.87;2.72;;;49.90;40.30;50.10;101320;;;;598342;236;23115;-84
2023/09/06 07:53:27;;;;;;;3.20;2.45;;;50.00;40.00;50.20;101307;;;;598256;236;23061;-82
2023/09/06 07:55:55;;;;;;;3.17;2.40;;;50.20;39.80;50.40;101309;;;;598630;236;23038;-83
2023/09/06 07:58:23;;;;;;;9.88;2.80;;;50.30;39.70;50.70;101311;;;;598800;234;24091;-84
2023/09/06 08:00:52;;;;;;;10.93;3.35;;;51.00;40.20;51.10;101309;;;;599972;235;23107;-80
2023/09/06 08:03:20;;;;;;;6.70;2.67;;;51.00;39.50;51.20;101311;;;;599677;232;23082;-85
2023/09/06 08:05:48;;;;;;;10.43;3.42;;;51.40;38.90;51.30;101317;;;;598746;236;23118;-85
2023/09/06 08:08:15;;;;;;;4.30;2.47;;;51.50;38.70;51.40;101313;;;;598112;236;23051;-85
2023/09/06 08:10:47;;;;;;;3.00;2.70;;;51.60;38.40;51.50;101314;;;;598081;236;23115;-84
2023/09/06 08:13:11;;;;;;;6.47;2.58;;;51.70;38.20;51.30;101311;;;;597934;236;24127;-85
2023/09/06 08:15:42;;;;;;;7.25;2.67;;;51.60;38.40;51.50;101308;;;;598051;236;23110;-82
2023/09/06 08:18:08;;;;;;;10.18;3.08;;;51.70;38.80;51.60;101319;;;;598270;236;23074;-86
2023/09/06 08:20:37;;;;;;;6.00;2.60;;;51.90;38.10;51.70;101320;;;;598415;236;23137;-84
2023/09/06 08:23:08;;;;;;;3.42;2.20;;;51.90;38.00;51.80;101319;;;;598547;236;23082;-85
2023/09/06 08:25:33;;;;;;;13.55;3.10;;;52.10;37.50;51.90;101323;;;;597993;236;23036;-86
2023/09/06 08:28:01;;;;;;;4.07;2.17;;;52.30;37.60;52.00;101329;;;;598344;236;23136;-85
2023/09/06 08:30:28;;;;;;;5.65;2.72;;;52.30;37.30;52.10;101328;;;;598367;236;23060;-87
2023/09/06 08:33:01;;;;;;;6.50;2.53;;;52.50;37.20;52.50;101332;;;;598255;236;24061;-85
2023/09/06 08:35:27;;;;;;;7.05;2.78;;;52.90;37.10;52.60;101323;;;;597645;236;23087;-85
2023/09/06 08:37:52;;;;;;;3.08;2.70;;;53.20;36.50;52.50;101328;;;;597949;236;23096;-86
2023/09/06 08:40:21;;;;;;;5.40;2.65;;;53.20;35.90;52.30;101326;;;;598142;232;23123;-85
2023/09/06 08:42:52;;;;;;;6.75;2.65;;;53.20;36.40;52.50;101335;;;;598065;236;23169;-84
2023/09/06 08:45:16;;;;;;;3.03;2.17;;;53.30;35.80;51.90;101338;;;;597696;236;23043;-85
2023/09/06 08:47:48;;;;;;;2.30;2.00;;;53.10;35.30;51.50;101339;;;;597399;236;23055;-85
2023/09/06 08:50:16;;;;;;;7.80;2.90;;;52.80;36.40;51.30;101334;;;;597587;236;24071;-85
2023/09/06 08:52:44;;;;;;;2.67;2.47;;;52.50;36.50;51.40;101333;;;;597604;236;23079;-86
2023/09/06 08:55:11;;;;;;;10.05;3.53;;;52.40;35.90;51.30;101338;;;;597600;236;23061;-86
2023/09/06 08:57:39;;;;;;;5.37;2.83;;;52.30;35.30;51.40;101337;;;;597975;236;23062;-87
2023/09/06 09:00:10;;;;;;;2.65;2.45;;;52.50;35.10;51.30;101340;;;;598020;236;23094;-87
2023/09/06 09:02:40;;;;;;;2.95;2.72;;;52.40;35.00;51.20;101345;;;;598430;236;23067;-85
2023/09/06 09:05:09;;;;;;;2.80;2.50;;;52.30;34.80;51.10;101345;;;;597343;236;23041;-85
2023/09/06 09:07:38;;;;;;;2.22;2.12;;;52.20;34.50;51.00;101349;;;;597588;236;23066;-86
2023/09/06 09:10:11;;;;;;;72.15;7.72;;;52.10;34.30;50.80;101355;;;;597964;234;24151;-84
2023/09/06 09:12:39;;;;;;;2.78;2.20;;;52.00;34.60;50.70;101352;;;;599668;235;23106;-85
2023/09/06 09:15:11;;;;;;;3.85;2.47;;;51.90;34.10;50.60;101355;;;;598656;236;24062;-86
2023/09/06 09:17:40;;;;;;;2.67;2.33;;;52.00;34.20;50.60;101361;;;;598073;236;23080;-85
2023/09/06 09:20:07;;;;;;;4.62;2.42;;;52.00;34.20;50.40;101362;;;;598724;236;23064;-84
2023/09/06 09:22:51;;;;;;;;;;;;;;;;;;;;;
2023/09/06 09:25:14;;;;;;;3.25;2.50;;;51.90;34.50;50.10;101362;;;;598125;236;23040;-84
2023/09/06 09:27:36;;;;;;;3.72;2.42;;;51.70;34.00;49.50;101372;;;;599001;236;23072;-86
2023/09/06 09:30:14;;;;;;;;;;;;;;;;;;;;;
2023/09/06 09:32:33;;;;;;;6.53;2.60;;;50.70;35.40;49.10;101382;;;;597368;236;23087;-81
2023/09/06 09:35:05;;;;;;;3.00;2.70;;;50.70;35.40;49.30;101376;;;;598777;236;23053;-84
2023/09/06 09:37:29;;;;;;;3.45;3.15;;;50.90;35.10;48.80;101383;;;;598217;236;23090;-85
2023/09/06 09:39:57;;;;;;;5.55;3.37;;;50.70;35.30;48.20;101383;;;;598589;236;23055;-86
2023/09/06 09:42:26;;;;;;;3.55;3.25;;;50.30;36.40;47.80;101389;;;;598673;236;23055;-85
2023/09/06 09:45:02;;;;;;;3.53;3.22;;;50.00;37.00;47.50;101390;;;;598148;236;23059;-83
2023/09/06 09:47:30;;;;;;;5.95;3.33;;;49.60;37.00;47.40;101395;;;;598485;236;23051;-82
2023/09/06 09:49:58;;;;;;;19.65;4.37;;;49.30;37.20;46.80;101398;;;;598035;236;23064;-83
2023/09/06 09:52:27;;;;;;;3.15;2.90;;;48.90;37.30;46.30;101397;;;;598143;236;23033;-83
2023/09/06 09:54:54;;;;;;;3.12;2.92;;;48.50;37.80;46.40;101395;;;;597929;236;23082;-84
2023/09/06 09:57:23;;;;;;;6.72;3.40;;;48.30;37.90;46.40;101401;;;;598047;236;24108;-87
2023/09/06 09:59:57;;;;;;;3.22;2.90;;;48.30;37.90;45.90;101400;;;;598683;236;23059;-86
2023/09/06 10:02:24;;;;;;;3.83;3.28;;;48.00;38.00;45.40;101398;;;;598086;236;23048;-83
2023/09/06 10:04:51;;;;;;;3.40;3.17;;;47.90;38.20;45.30;101398;;;;598209;236;23052;-75
2023/09/06 10:07:20;;;;;;;3.40;3.12;;;47.50;38.70;45.20;101402;;;;597829;236;23037;-79
2023/09/06 10:09:51;;;;;;;3.70;3.30;;;46.40;39.40;43.60;101403;;;;598352;236;23056;-78
2023/09/06 10:12:17;;;;;;;4.53;3.15;;;44.70;40.70;41.70;101398;;;;597495;236;23112;-81
2023/09/06 10:14:48;;;;;;;4.40;3.47;;;42.40;43.30;39.30;101394;;;;597654;236;24102;-77
2023/09/06 10:17:13;;;;;;;3.70;3.40;;;42.30;43.20;37.70;101397;;;;597618;236;23037;-79
2023/09/06 10:19:45;;;;;;;3.10;2.90;;;40.20;45.40;36.10;101395;;;;598349;236;24062;-77
2023/09/06 10:22:13;;;;;;;4.97;3.22;;;38.20;47.60;34.70;101400;;;;598461;235;23069;-78
2023/09/06 10:24:38;;;;;;;3.37;3.17;;;36.60;49.90;33.50;101390;;;;598975;235;23042;-74
2023/09/06 10:27:05;;;;;;;3.20;2.90;;;35.20;52.00;32.30;101388;;;;599237;236;24125;-75
2023/09/06 10:29:34;;;;;;;6.45;3.85;;;33.80;54.30;31.30;101389;;;;598691;236;23042;-75
2023/09/06 10:32:08;;;;;;;3.65;3.42;;;32.70;56.40;30.30;101388;;;;596318;236;23069;-75
2023/09/06 10:34:33;;;;;;;3.60;3.33;;;31.60;58.50;29.50;101401;;;;598740;236;23075;-75
2023/09/06 10:37:06;;;;;;;8.73;4.25;;;30.70;60.40;28.80;101389;;;;599156;236;23047;-76
2023/09/06 10:39:35;;;;;;;5.53;2.95;;;29.80;63.60;28.10;101384;;;;599151;236;23028;-76
2023/09/06 10:42:09;;;;;;;4.05;3.60;;;29.00;65.30;27.50;101385;;;;598756;236;24058;-74
2023/09/06 10:44:58;;;;;;;3.63;3.33;;;28.30;67.60;27.10;101384;;;;593221;237;23063;-76
2023/09/06 10:47:31;;;;;;;3.23;2.90;;;27.70;70.10;26.60;101384;;;;592411;239;24168;-76
2023/09/06 10:50:11;;;;;;;7.17;3.60;;;27.20;72.00;26.20;101379;;;;592242;239;24074;-77
2023/09/06 10:53:02;;;;;;;3.47;3.17;;;26.70;73.90;25.70;101372;;;;594815;239;24100;-76
2023/09/06 10:55:30;;;;;;;5.03;3.40;;;26.20;76.10;25.40;101374;;;;595726;239;23063;-75
2023/09/06 10:58:06;;;;;;;3.60;3.30;;;25.80;78.40;25.10;101371;;;;591445;239;23072;-75
2023/09/06 11:00:36;;;;;;;3.10;2.90;;;25.50;79.60;24.90;101367;;;;591379;239;24142;-77
2023/09/06 11:03:09;;;;;;;6.33;3.27;;;25.30;80.90;24.70;101368;;;;591060;239;23077;-75
2023/09/06 11:05:37;;;;;;;3.30;3.00;;;25.10;82.50;24.50;101373;;;;591320;239;23075;-75
2023/09/06 11:08:07;;;;;;;3.73;3.53;;;25.00;83.80;24.40;101365;;;;591966;239;23047;-76
2023/09/06 11:10:35;;;;;;;5.07;4.30;;;24.80;84.90;24.20;101360;;;;591620;239;24039;-76
2023/09/06 11:13:12;;;;;;;3.63;3.33;;;24.70;86.60;24.10;101355;;;;595046;239;23061;-76
2023/09/06 11:15:41;;;;;;;6.53;3.97;;;24.40;88.60;24.00;101350;;;;591703;239;24086;-75
2023/09/06 11:18:14;;;;;;;5.30;3.40;;;24.40;88.60;23.90;101355;;;;591480;239;23091;-75
2023/09/06 11:20:42;;;;;;;10.03;3.80;;;24.30;90.00;23.90;101360;;;;594909;239;23082;-76